createdAt,value
2023-05-19T00:00:07.954Z,463.00
2023-05-19T00:01:07.990Z,461.00
2023-05-19T00:02:07.953Z,461.00
2023-05-19T00:03:08.110Z,463.00
2023-05-19T00:04:07.950Z,464.00
2023-05-19T00:05:07.932Z,465.00
2023-05-19T00:06:08.161Z,466.00
2023-05-19T00:07:08.026Z,466.00
2023-05-19T00:08:07.937Z,464.00
2023-05-19T00:09:07.990Z,464.00
2023-05-19T00:10:07.899Z,463.00
2023-05-19T00:11:07.914Z,460.00
2023-05-19T00:12:07.914Z,459.00
2023-05-19T00:13:07.900Z,459.00
2023-05-19T00:14:07.951Z,457.00
2023-05-19T00:15:07.890Z,457.00
2023-05-19T00:16:07.928Z,454.00
2023-05-19T00:17:08.542Z,454.00
2023-05-19T00:18:07.894Z,452.00
2023-05-19T00:19:07.953Z,454.00
2023-05-19T00:20:07.885Z,455.00
2023-05-19T00:21:07.854Z,458.00
2023-05-19T00:22:07.840Z,458.00
2023-05-19T00:23:07.854Z,459.00
2023-05-19T00:24:08.117Z,460.00
2023-05-19T00:25:07.850Z,459.00
2023-05-19T00:26:07.863Z,460.00
2023-05-19T00:27:07.909Z,460.00
2023-05-19T00:28:07.891Z,461.00
2023-05-19T00:29:07.900Z,465.00
2023-05-19T00:30:07.882Z,467.00
2023-05-19T00:31:07.965Z,464.00
2023-05-19T00:32:08.044Z,465.00
2023-05-19T00:33:08.008Z,464.00
2023-05-19T00:34:07.947Z,463.00
2023-05-19T00:35:07.933Z,463.00
2023-05-19T00:36:07.976Z,462.00
2023-05-19T00:37:07.990Z,461.00
2023-05-19T00:38:07.944Z,462.00
2023-05-19T00:39:07.956Z,459.00
2023-05-19T00:40:07.962Z,458.00
2023-05-19T00:41:07.977Z,460.00
2023-05-19T00:42:07.993Z,463.00
2023-05-19T00:43:08.004Z,463.00
2023-05-19T00:44:07.969Z,465.00
2023-05-19T00:45:08.001Z,465.00
2023-05-19T00:46:07.997Z,465.00
2023-05-19T00:47:08.054Z,465.00
2023-05-19T00:48:08.083Z,464.00
2023-05-19T00:49:08.034Z,463.00
2023-05-19T00:50:08.039Z,464.00
2023-05-19T00:51:08.071Z,466.00
2023-05-19T00:52:08.029Z,464.00
2023-05-19T00:53:08.038Z,465.00
2023-05-19T00:54:08.041Z,463.00
2023-05-19T00:55:08.084Z,462.00
2023-05-19T00:56:08.075Z,462.00
2023-05-19T00:57:08.114Z,460.00
2023-05-19T00:58:08.064Z,459.00
2023-05-19T00:59:08.123Z,460.00
2023-05-19T01:00:08.157Z,457.00
2023-05-19T01:01:08.187Z,457.00
2023-05-19T01:02:08.136Z,460.00
2023-05-19T01:03:08.227Z,458.00
2023-05-19T01:04:08.163Z,459.00
2023-05-19T01:05:08.113Z,458.00
2023-05-19T01:06:08.348Z,457.00
2023-05-19T01:07:08.121Z,456.00
2023-05-19T01:08:08.199Z,456.00
2023-05-19T01:09:08.125Z,457.00
2023-05-19T01:10:08.173Z,459.00
2023-05-19T01:11:08.217Z,462.00
2023-05-19T01:12:08.151Z,461.00
2023-05-19T01:13:08.190Z,461.00
2023-05-19T01:14:08.197Z,464.00
2023-05-19T01:15:08.257Z,465.00
2023-05-19T01:16:08.201Z,464.00
2023-05-19T01:17:08.218Z,465.00
2023-05-19T01:18:08.275Z,467.00
2023-05-19T01:19:08.313Z,467.00
2023-05-19T01:20:08.242Z,466.00
2023-05-19T01:21:08.214Z,466.00
2023-05-19T01:22:08.289Z,464.00
2023-05-19T01:23:08.244Z,463.00
2023-05-19T01:24:08.213Z,463.00
2023-05-19T01:25:08.240Z,463.00
2023-05-19T01:26:08.248Z,462.00
2023-05-19T01:27:08.274Z,462.00
2023-05-19T01:28:08.261Z,461.00
2023-05-19T01:29:08.237Z,461.00
2023-05-19T01:30:08.259Z,461.00
2023-05-19T01:31:08.392Z,460.00
2023-05-19T01:32:08.516Z,459.00
2023-05-19T01:33:08.317Z,460.00
2023-05-19T01:34:08.269Z,461.00
2023-05-19T01:35:08.259Z,462.00
2023-05-19T01:36:08.313Z,460.00
2023-05-19T01:37:08.261Z,458.00
2023-05-19T01:38:08.245Z,456.00
2023-05-19T01:39:08.281Z,455.00
2023-05-19T01:40:08.306Z,454.00
2023-05-19T01:41:08.273Z,454.00
2023-05-19T01:42:08.409Z,454.00
2023-05-19T01:43:08.249Z,455.00
2023-05-19T01:44:08.245Z,456.00
2023-05-19T01:45:08.253Z,456.00
2023-05-19T01:46:08.363Z,455.00
2023-05-19T01:47:08.261Z,456.00
2023-05-19T01:48:10.827Z,456.00
2023-05-19T01:49:08.265Z,456.00
2023-05-19T01:50:08.262Z,454.00
2023-05-19T01:51:08.312Z,456.00
2023-05-19T01:52:08.239Z,458.00
2023-05-19T01:53:08.248Z,459.00
2023-05-19T01:54:08.271Z,457.00
2023-05-19T01:55:08.240Z,458.00
2023-05-19T01:56:08.555Z,457.00
2023-05-19T01:57:08.268Z,456.00
2023-05-19T01:58:08.448Z,457.00
2023-05-19T01:59:08.210Z,457.00
2023-05-19T02:00:08.232Z,456.00
2023-05-19T02:01:08.272Z,457.00
2023-05-19T02:02:08.215Z,455.00
2023-05-19T02:03:08.371Z,455.00
2023-05-19T02:04:08.254Z,452.00
2023-05-19T02:05:08.216Z,454.00
2023-05-19T02:06:08.219Z,455.00
2023-05-19T02:07:08.267Z,455.00
2023-05-19T02:08:08.197Z,454.00
2023-05-19T02:09:08.216Z,452.00
2023-05-19T02:10:08.239Z,453.00
2023-05-19T02:11:08.243Z,455.00
2023-05-19T02:12:08.202Z,454.00
2023-05-19T02:13:08.226Z,453.00
2023-05-19T02:14:08.208Z,452.00
2023-05-19T02:15:08.216Z,452.00
2023-05-19T02:16:08.315Z,450.00
2023-05-19T02:17:08.317Z,450.00
2023-05-19T02:18:08.237Z,451.00
2023-05-19T02:19:08.345Z,453.00
2023-05-19T02:20:08.242Z,454.00
2023-05-19T02:21:08.247Z,454.00
2023-05-19T02:22:08.252Z,455.00
2023-05-19T02:23:08.257Z,452.00
2023-05-19T02:24:08.282Z,452.00
2023-05-19T02:25:08.344Z,451.00
2023-05-19T02:26:08.254Z,450.00
2023-05-19T02:27:08.252Z,452.00
2023-05-19T02:28:08.285Z,456.00
2023-05-19T02:29:08.297Z,455.00
2023-05-19T02:30:08.374Z,455.00
2023-05-19T02:31:08.260Z,456.00
2023-05-19T02:32:08.366Z,453.00
2023-05-19T02:33:08.328Z,454.00
2023-05-19T02:34:08.377Z,453.00
2023-05-19T02:35:08.265Z,452.00
2023-05-19T02:36:08.308Z,450.00
2023-05-19T02:37:08.283Z,452.00
2023-05-19T02:38:08.268Z,452.00
2023-05-19T02:39:08.275Z,452.00
2023-05-19T02:40:08.325Z,453.00
2023-05-19T02:41:08.279Z,453.00
2023-05-19T02:42:08.297Z,455.00
2023-05-19T02:43:08.318Z,456.00
2023-05-19T02:44:08.552Z,458.00
2023-05-19T02:45:08.281Z,460.00
2023-05-19T02:46:08.351Z,460.00
2023-05-19T02:47:08.289Z,459.00
2023-05-19T02:48:08.347Z,457.00
2023-05-19T02:49:08.326Z,458.00
2023-05-19T02:50:08.288Z,458.00
2023-05-19T02:51:08.436Z,459.00
2023-05-19T02:52:08.321Z,459.00
2023-05-19T02:53:08.308Z,459.00
2023-05-19T02:54:08.327Z,457.00
2023-05-19T02:55:08.309Z,457.00
2023-05-19T02:56:08.309Z,455.00
2023-05-19T02:57:08.310Z,456.00
2023-05-19T02:58:08.342Z,457.00
2023-05-19T02:59:08.302Z,461.00
2023-05-19T03:00:08.324Z,462.00
2023-05-19T03:01:08.320Z,461.00
2023-05-19T03:03:08.406Z,459.00
2023-05-19T03:04:08.340Z,457.00
2023-05-19T03:05:08.291Z,454.00
2023-05-19T03:06:08.332Z,452.00
2023-05-19T03:07:08.300Z,452.00
2023-05-19T03:08:08.289Z,452.00
2023-05-19T03:09:08.282Z,452.00
2023-05-19T03:10:08.276Z,450.00
2023-05-19T03:11:08.280Z,450.00
2023-05-19T03:12:08.349Z,451.00
2023-05-19T03:13:08.267Z,450.00
2023-05-19T03:14:08.266Z,450.00
2023-05-19T03:15:08.260Z,449.00
2023-05-19T03:16:08.441Z,446.00
2023-05-19T03:17:08.519Z,447.00
2023-05-19T03:18:08.313Z,445.00
2023-05-19T03:19:08.310Z,444.00
2023-05-19T03:20:08.233Z,444.00
2023-05-19T03:21:08.268Z,445.00
2023-05-19T03:22:08.218Z,447.00
2023-05-19T03:23:08.216Z,450.00
2023-05-19T03:24:08.280Z,451.00
2023-05-19T03:25:08.218Z,452.00
2023-05-19T03:26:08.229Z,453.00
2023-05-19T03:27:08.222Z,457.00
2023-05-19T03:28:08.240Z,456.00
2023-05-19T03:29:08.217Z,455.00
2023-05-19T03:30:08.193Z,453.00
2023-05-19T03:31:08.372Z,452.00
2023-05-19T03:32:08.216Z,454.00
2023-05-19T03:33:08.307Z,455.00
2023-05-19T03:34:08.189Z,455.00
2023-05-19T03:35:08.227Z,455.00
2023-05-19T03:36:08.215Z,457.00
2023-05-19T03:37:08.190Z,456.00
2023-05-19T03:38:08.246Z,456.00
2023-05-19T03:39:08.174Z,456.00
2023-05-19T03:40:08.213Z,455.00
2023-05-19T03:41:08.238Z,455.00
2023-05-19T03:42:08.160Z,454.00
2023-05-19T03:43:08.202Z,451.00
2023-05-19T03:44:08.145Z,451.00
2023-05-19T03:45:08.157Z,450.00
2023-05-19T03:46:08.283Z,452.00
2023-05-19T03:47:08.121Z,449.00
2023-05-19T03:48:08.141Z,447.00
2023-05-19T03:49:08.129Z,447.00
2023-05-19T03:50:08.114Z,450.00
2023-05-19T03:51:08.092Z,452.00
2023-05-19T03:52:08.096Z,451.00
2023-05-19T03:53:08.090Z,454.00
2023-05-19T03:54:08.068Z,454.00
2023-05-19T03:55:08.084Z,454.00
2023-05-19T03:56:08.103Z,451.00
2023-05-19T03:57:08.072Z,451.00
2023-05-19T03:58:08.207Z,452.00
2023-05-19T03:59:08.069Z,450.00
2023-05-19T04:00:08.061Z,451.00
2023-05-19T04:01:08.064Z,452.00
2023-05-19T04:02:08.384Z,452.00
2023-05-19T04:03:08.333Z,455.00
2023-05-19T04:04:08.183Z,455.00
2023-05-19T04:05:08.045Z,457.00
2023-05-19T04:06:08.070Z,457.00
2023-05-19T04:07:08.053Z,455.00
2023-05-19T04:08:08.078Z,456.00
2023-05-19T04:09:08.079Z,455.00
2023-05-19T04:10:08.126Z,457.00
2023-05-19T04:11:08.123Z,458.00
2023-05-19T04:12:08.148Z,459.00
2023-05-19T04:13:08.154Z,456.00
2023-05-19T04:14:08.189Z,456.00
2023-05-19T04:15:08.232Z,458.00
2023-05-19T04:16:08.293Z,458.00
2023-05-19T04:17:08.251Z,456.00
2023-05-19T04:18:08.318Z,458.00
2023-05-19T04:19:08.452Z,457.00
2023-05-19T04:20:08.297Z,458.00
2023-05-19T04:21:08.352Z,458.00
2023-05-19T04:22:08.348Z,459.00
2023-05-19T04:23:08.394Z,460.00
2023-05-19T04:24:08.377Z,462.00
2023-05-19T04:25:08.390Z,463.00
2023-05-19T04:26:08.455Z,463.00
2023-05-19T04:27:08.429Z,461.00
2023-05-19T04:28:08.500Z,460.00
2023-05-19T04:29:08.484Z,461.00
2023-05-19T04:30:08.495Z,460.00
2023-05-19T04:31:08.539Z,461.00
2023-05-19T04:32:08.524Z,461.00
2023-05-19T04:33:08.641Z,461.00
2023-05-19T04:34:08.561Z,460.00
2023-05-19T04:35:08.564Z,458.00
2023-05-19T04:36:08.627Z,457.00
2023-05-19T04:37:08.670Z,458.00
2023-05-19T04:38:08.638Z,457.00
2023-05-19T04:39:08.643Z,455.00
2023-05-19T04:40:08.659Z,455.00
2023-05-19T04:41:08.686Z,454.00
2023-05-19T04:42:08.725Z,453.00
2023-05-19T04:43:08.708Z,454.00
2023-05-19T04:44:08.752Z,455.00
2023-05-19T04:45:08.812Z,460.00
2023-05-19T04:46:09.568Z,459.00
2023-05-19T04:47:09.019Z,457.00
2023-05-19T04:48:08.847Z,456.00
2023-05-19T04:49:08.828Z,456.00
2023-05-19T04:50:08.845Z,454.00
2023-05-19T04:51:08.832Z,455.00
2023-05-19T04:52:08.824Z,453.00
2023-05-19T04:53:08.873Z,455.00
2023-05-19T04:54:08.844Z,455.00
2023-05-19T04:55:08.845Z,454.00
2023-05-19T04:56:08.833Z,453.00
2023-05-19T04:57:08.836Z,456.00
2023-05-19T04:58:08.838Z,454.00
2023-05-19T04:59:08.893Z,454.00
2023-05-19T05:00:08.851Z,453.00
2023-05-19T05:01:08.880Z,454.00
2023-05-19T05:02:08.918Z,454.00
2023-05-19T05:03:08.924Z,455.00
2023-05-19T05:04:08.894Z,454.00
2023-05-19T05:05:08.876Z,455.00
2023-05-19T05:06:08.893Z,454.00
2023-05-19T05:07:08.854Z,453.00
2023-05-19T05:08:08.892Z,453.00
2023-05-19T05:09:08.866Z,455.00
2023-05-19T05:10:08.860Z,458.00
2023-05-19T05:11:08.984Z,459.00
2023-05-19T05:12:08.860Z,459.00
2023-05-19T05:13:10.489Z,456.00
2023-05-19T05:14:08.880Z,458.00
2023-05-19T05:15:08.844Z,457.00
2023-05-19T05:16:08.977Z,457.00
2023-05-19T05:17:08.825Z,456.00
2023-05-19T05:18:08.911Z,455.00
2023-05-19T05:19:09.090Z,454.00
2023-05-19T05:20:08.851Z,453.00
2023-05-19T05:21:08.865Z,453.00
2023-05-19T05:22:08.857Z,454.00
2023-05-19T05:23:08.850Z,450.00
2023-05-19T05:24:08.841Z,449.00
2023-05-19T05:25:08.882Z,448.00
2023-05-19T05:26:08.848Z,447.00
2023-05-19T05:27:08.844Z,449.00
2023-05-19T05:28:08.891Z,449.00
2023-05-19T05:29:08.838Z,451.00
2023-05-19T05:30:08.812Z,449.00
2023-05-19T05:31:08.826Z,448.00
2023-05-19T05:32:08.836Z,449.00
2023-05-19T05:33:09.045Z,449.00
2023-05-19T05:34:08.853Z,450.00
2023-05-19T05:35:08.825Z,450.00
2023-05-19T05:36:08.907Z,448.00
2023-05-19T05:37:08.875Z,447.00
2023-05-19T05:38:08.808Z,447.00
2023-05-19T05:39:08.818Z,450.00
2023-05-19T05:40:08.839Z,449.00
2023-05-19T05:41:08.838Z,450.00
2023-05-19T05:42:08.811Z,449.00
2023-05-19T05:43:08.797Z,450.00
2023-05-19T05:44:08.791Z,449.00
2023-05-19T05:45:08.786Z,448.00
2023-05-19T05:46:08.934Z,447.00
2023-05-19T05:47:08.876Z,449.00
2023-05-19T05:48:08.868Z,449.00
2023-05-19T05:49:08.771Z,446.00
2023-05-19T05:50:08.783Z,445.00
2023-05-19T05:51:08.816Z,446.00
2023-05-19T05:52:08.751Z,443.00
2023-05-19T05:53:08.765Z,440.00
2023-05-19T05:54:08.805Z,440.00
2023-05-19T05:55:08.796Z,440.00
2023-05-19T05:56:08.858Z,442.00
2023-05-19T05:57:08.807Z,443.00
2023-05-19T05:58:08.852Z,443.00
2023-05-19T05:59:08.853Z,446.00
2023-05-19T06:00:08.888Z,449.00
2023-05-19T06:01:08.955Z,450.00
2023-05-19T06:02:08.914Z,451.00
2023-05-19T06:03:09.024Z,451.00
2023-05-19T06:04:08.886Z,449.00
2023-05-19T06:05:08.930Z,450.00
2023-05-19T06:06:08.957Z,450.00
2023-05-19T06:07:08.952Z,451.00
2023-05-19T06:08:09.018Z,449.00
2023-05-19T06:09:08.956Z,448.00
2023-05-19T06:10:09.011Z,449.00
2023-05-19T06:11:08.992Z,451.00
2023-05-19T06:12:09.018Z,453.00
2023-05-19T06:13:09.004Z,453.00
2023-05-19T06:14:09.104Z,454.00
2023-05-19T06:15:09.066Z,451.00
2023-05-19T06:16:09.056Z,451.00
2023-05-19T06:17:09.065Z,450.00
2023-05-19T06:18:09.083Z,451.00
2023-05-19T06:19:09.115Z,452.00
2023-05-19T06:20:09.115Z,451.00
2023-05-19T06:21:09.108Z,450.00
2023-05-19T06:22:09.124Z,452.00
2023-05-19T06:23:09.088Z,448.00
2023-05-19T06:24:09.142Z,448.00
2023-05-19T06:25:09.089Z,448.00
2023-05-19T06:26:09.092Z,446.00
2023-05-19T06:27:09.101Z,447.00
2023-05-19T06:28:09.139Z,446.00
2023-05-19T06:29:09.101Z,447.00
2023-05-19T06:30:09.108Z,450.00
2023-05-19T06:31:09.187Z,451.00
2023-05-19T06:32:09.174Z,450.00
2023-05-19T06:33:09.205Z,450.00
2023-05-19T06:34:09.148Z,450.00
2023-05-19T06:35:09.168Z,450.00
2023-05-19T06:36:09.133Z,451.00
2023-05-19T06:37:09.155Z,451.00
2023-05-19T06:38:09.178Z,451.00
2023-05-19T06:39:09.189Z,450.00
2023-05-19T06:40:09.213Z,449.00
2023-05-19T06:41:09.193Z,452.00
2023-05-19T06:42:09.186Z,451.00
2023-05-19T06:43:09.193Z,450.00
2023-05-19T06:44:09.236Z,448.00
2023-05-19T06:45:09.203Z,448.00
2023-05-19T06:46:09.197Z,447.00
2023-05-19T06:47:09.279Z,446.00
2023-05-19T06:48:09.321Z,446.00
2023-05-19T06:49:09.253Z,447.00
2023-05-19T06:50:09.343Z,448.00
2023-05-19T06:51:09.238Z,450.00
2023-05-19T06:52:09.247Z,450.00
2023-05-19T06:53:09.213Z,452.00
2023-05-19T06:54:09.316Z,452.00
2023-05-19T06:55:09.300Z,467.00
2023-05-19T06:56:10.173Z,467.00
2023-05-19T06:57:09.253Z,466.00
2023-05-19T06:58:09.289Z,465.00
2023-05-19T06:59:09.266Z,467.00
2023-05-19T07:00:09.293Z,467.00
2023-05-19T07:01:09.297Z,465.00
2023-05-19T07:02:09.529Z,462.00
2023-05-19T07:03:09.353Z,462.00
2023-05-19T07:04:09.670Z,459.00
2023-05-19T07:05:09.331Z,457.00
2023-05-19T07:06:09.291Z,457.00
2023-05-19T07:07:09.427Z,454.00
2023-05-19T07:08:09.280Z,453.00
2023-05-19T07:09:09.322Z,454.00
2023-05-19T07:10:09.341Z,454.00
2023-05-19T07:11:09.316Z,451.00
2023-05-19T07:12:09.442Z,451.00
2023-05-19T07:13:10.239Z,449.00
2023-05-19T07:14:09.288Z,450.00
2023-05-19T07:15:09.281Z,450.00
2023-05-19T07:16:09.808Z,452.00
2023-05-19T07:17:09.394Z,451.00
2023-05-19T07:18:09.370Z,450.00
2023-05-19T07:19:09.356Z,450.00
2023-05-19T07:20:09.324Z,451.00
2023-05-19T07:21:09.389Z,453.00
2023-05-19T07:22:09.541Z,454.00
2023-05-19T07:23:09.536Z,454.00
2023-05-19T07:24:09.542Z,455.00
2023-05-19T07:25:09.637Z,456.00
2023-05-19T07:26:09.637Z,458.00
2023-05-19T07:27:09.698Z,460.00
2023-05-19T07:28:10.670Z,460.00
2023-05-19T07:29:09.802Z,464.00
2023-05-19T07:30:09.858Z,464.00
2023-05-19T07:31:09.910Z,463.00
2023-05-19T07:32:10.168Z,464.00
2023-05-19T07:33:09.987Z,465.00
2023-05-19T07:34:09.944Z,464.00
2023-05-19T07:35:10.062Z,466.00
2023-05-19T07:36:09.977Z,462.00
2023-05-19T07:37:09.947Z,462.00
2023-05-19T07:38:09.916Z,461.00
2023-05-19T07:39:10.001Z,462.00
2023-05-19T07:40:09.936Z,462.00
2023-05-19T07:41:09.922Z,462.00
2023-05-19T07:42:09.906Z,460.00
2023-05-19T07:43:09.896Z,459.00
2023-05-19T07:44:10.010Z,460.00
2023-05-19T07:45:10.776Z,460.00
2023-05-19T07:46:10.238Z,458.00
2023-05-19T07:47:10.120Z,459.00
2023-05-19T07:48:10.335Z,459.00
2023-05-19T07:49:11.208Z,457.00
2023-05-19T07:50:10.345Z,457.00
2023-05-19T07:51:10.355Z,457.00
2023-05-19T07:52:10.533Z,458.00
2023-05-19T07:53:10.523Z,458.00
2023-05-19T07:54:11.305Z,454.00
2023-05-19T07:55:10.575Z,454.00
2023-05-19T07:56:10.674Z,454.00
2023-05-19T07:57:10.709Z,453.00
2023-05-19T07:58:10.780Z,453.00
2023-05-19T07:59:10.866Z,453.00
2023-05-19T08:00:11.711Z,454.00
2023-05-19T08:01:10.926Z,457.00
2023-05-19T08:02:11.133Z,459.00
2023-05-19T08:03:11.118Z,461.00
2023-05-19T08:04:12.975Z,461.00
2023-05-19T08:05:11.724Z,459.00
2023-05-19T08:06:11.301Z,461.00
2023-05-19T08:07:11.243Z,461.00
2023-05-19T08:08:11.341Z,458.00
2023-05-19T08:09:11.367Z,457.00
2023-05-19T08:10:11.419Z,456.00
2023-05-19T08:11:11.450Z,457.00
2023-05-19T08:12:11.833Z,456.00
2023-05-19T08:13:11.593Z,457.00
2023-05-19T08:14:12.214Z,458.00
2023-05-19T08:15:11.733Z,458.00
2023-05-19T08:16:11.860Z,456.00
2023-05-19T08:17:12.213Z,455.00
2023-05-19T08:18:11.948Z,454.00
2023-05-19T08:19:11.995Z,455.00
2023-05-19T08:20:12.737Z,454.00
2023-05-19T08:21:12.154Z,452.00
2023-05-19T08:22:12.222Z,451.00
2023-05-19T08:23:12.330Z,450.00
2023-05-19T08:24:12.341Z,452.00
2023-05-19T08:25:12.387Z,454.00
2023-05-19T08:26:12.477Z,453.00
2023-05-19T08:27:12.526Z,453.00
2023-05-19T08:28:13.250Z,451.00
2023-05-19T08:29:12.644Z,452.00
2023-05-19T08:30:12.685Z,452.00
2023-05-19T08:31:12.806Z,454.00
2023-05-19T08:32:18.273Z,453.00
2023-05-19T08:33:12.939Z,453.00
2023-05-19T08:34:12.990Z,449.00
2023-05-19T08:35:13.085Z,447.00
2023-05-19T08:36:13.062Z,447.00
2023-05-19T08:37:13.812Z,444.00
2023-05-19T08:38:13.179Z,444.00
2023-05-19T08:39:13.810Z,443.00
2023-05-19T08:40:13.252Z,445.00
2023-05-19T08:41:13.275Z,445.00
2023-05-19T08:42:13.242Z,445.00
2023-05-19T08:43:13.271Z,441.00
2023-05-19T08:44:13.224Z,445.00
2023-05-19T08:45:13.183Z,445.00
2023-05-19T08:46:13.207Z,443.00
2023-05-19T08:47:14.332Z,442.00
2023-05-19T08:48:13.204Z,441.00
2023-05-19T08:49:13.166Z,441.00
2023-05-19T08:50:13.223Z,440.00
2023-05-19T08:51:13.132Z,439.00
2023-05-19T08:52:13.818Z,439.00
2023-05-19T08:53:24.729Z,439.00
2023-05-19T08:54:14.136Z,442.00
2023-05-19T08:55:13.120Z,442.00
2023-05-19T08:56:13.077Z,442.00
2023-05-19T08:57:13.127Z,441.00
2023-05-19T08:58:13.037Z,442.00
2023-05-19T08:59:13.036Z,442.00
2023-05-19T09:00:13.038Z,442.00
2023-05-19T09:01:13.168Z,443.00
2023-05-19T09:02:13.042Z,441.00
2023-05-19T09:04:13.271Z,441.00
2023-05-19T09:05:13.032Z,442.00
2023-05-19T09:06:13.083Z,444.00
2023-05-19T09:07:12.983Z,443.00
2023-05-19T09:08:12.952Z,444.00
2023-05-19T09:09:12.975Z,446.00
2023-05-19T09:10:12.993Z,445.00
2023-05-19T09:11:12.942Z,447.00
2023-05-19T09:12:12.930Z,450.00
2023-05-19T09:13:12.904Z,451.00
2023-05-19T09:14:12.852Z,451.00
2023-05-19T09:15:12.861Z,452.00
2023-05-19T09:16:12.915Z,452.00
2023-05-19T09:17:12.965Z,451.00
2023-05-19T09:18:12.836Z,452.00
2023-05-19T09:19:12.851Z,451.00
2023-05-19T09:20:12.793Z,453.00
2023-05-19T09:21:12.813Z,451.00
2023-05-19T09:22:12.826Z,451.00
2023-05-19T09:23:12.820Z,452.00
2023-05-19T09:24:12.878Z,453.00
2023-05-19T09:25:13.735Z,454.00
2023-05-19T09:26:12.986Z,451.00
2023-05-19T09:27:24.881Z,449.00
2023-05-19T09:28:13.010Z,448.00
2023-05-19T09:29:12.998Z,446.00
2023-05-19T09:30:12.981Z,444.00
2023-05-19T09:31:12.969Z,444.00
2023-05-19T09:32:13.005Z,443.00
2023-05-19T09:33:12.968Z,444.00
2023-05-19T09:34:12.917Z,444.00
2023-05-19T09:35:12.905Z,445.00
2023-05-19T09:36:12.890Z,445.00
2023-05-19T09:37:19.338Z,444.00
2023-05-19T09:38:12.849Z,443.00
2023-05-19T09:39:12.872Z,443.00
2023-05-19T09:40:13.112Z,442.00
2023-05-19T09:41:12.902Z,440.00
2023-05-19T09:42:12.869Z,439.00
2023-05-19T09:43:12.768Z,441.00
2023-05-19T09:44:12.759Z,442.00
2023-05-19T09:45:12.841Z,442.00
2023-05-19T09:46:14.445Z,443.00
2023-05-19T09:47:12.703Z,444.00
2023-05-19T09:48:12.687Z,443.00
2023-05-19T09:49:12.691Z,444.00
2023-05-19T09:50:12.665Z,443.00
2023-05-19T09:51:12.657Z,447.00
2023-05-19T09:52:12.750Z,447.00
2023-05-19T09:53:12.716Z,445.00
2023-05-19T09:54:12.798Z,443.00
2023-05-19T09:55:12.855Z,440.00
2023-05-19T09:56:13.745Z,438.00
2023-05-19T09:57:12.909Z,438.00
2023-05-19T09:58:12.912Z,440.00
2023-05-19T09:59:12.995Z,440.00
2023-05-19T10:00:13.173Z,441.00
2023-05-19T10:01:13.137Z,440.00
2023-05-19T10:02:13.309Z,442.00
2023-05-19T10:03:13.147Z,444.00
2023-05-19T10:04:13.146Z,443.00
2023-05-19T10:05:13.237Z,442.00
2023-05-19T10:06:14.245Z,442.00
2023-05-19T10:07:13.272Z,441.00
2023-05-19T10:08:13.307Z,442.00
2023-05-19T10:09:13.331Z,441.00
2023-05-19T10:10:13.379Z,442.00
2023-05-19T10:11:13.412Z,439.00
2023-05-19T10:12:13.452Z,439.00
2023-05-19T10:13:13.485Z,439.00
2023-05-19T10:14:13.637Z,439.00
2023-05-19T10:15:13.559Z,438.00
2023-05-19T10:16:13.641Z,439.00
2023-05-19T10:17:13.663Z,441.00
2023-05-19T10:18:13.848Z,442.00
2023-05-19T10:19:13.744Z,443.00
2023-05-19T10:20:13.769Z,445.00
2023-05-19T10:21:13.761Z,444.00
2023-05-19T10:22:13.810Z,443.00
2023-05-19T10:23:13.884Z,442.00
2023-05-19T10:24:13.916Z,441.00
2023-05-19T10:25:13.933Z,440.00
2023-05-19T10:26:13.964Z,439.00
2023-05-19T10:27:14.058Z,441.00
2023-05-19T10:28:14.043Z,439.00
2023-05-19T10:29:14.134Z,437.00
2023-05-19T10:30:15.032Z,440.00
2023-05-19T10:31:14.133Z,440.00
2023-05-19T10:32:14.207Z,438.00
2023-05-19T10:33:14.263Z,438.00
2023-05-19T10:34:14.251Z,437.00
2023-05-19T10:35:14.300Z,437.00
2023-05-19T10:36:14.310Z,437.00
2023-05-19T10:37:14.369Z,438.00
2023-05-19T10:38:14.391Z,437.00
2023-05-19T10:39:14.409Z,437.00
2023-05-19T10:40:14.478Z,438.00
2023-05-19T10:41:14.513Z,439.00
2023-05-19T10:42:14.565Z,440.00
2023-05-19T10:43:14.576Z,439.00
2023-05-19T10:44:14.600Z,438.00
2023-05-19T10:45:14.655Z,440.00
2023-05-19T10:46:14.708Z,442.00
2023-05-19T10:47:14.792Z,442.00
2023-05-19T10:48:14.771Z,444.00
2023-05-19T10:49:14.659Z,444.00
2023-05-19T10:50:14.847Z,443.00
2023-05-19T10:51:14.632Z,442.00
2023-05-19T10:52:14.582Z,443.00
2023-05-19T10:53:15.285Z,447.00
2023-05-19T10:54:14.607Z,445.00
2023-05-19T10:55:14.558Z,445.00
2023-05-19T10:56:14.527Z,447.00
2023-05-19T10:57:14.508Z,444.00
2023-05-19T10:58:14.500Z,442.00
2023-05-19T10:59:14.521Z,443.00
2023-05-19T11:00:14.639Z,442.00
2023-05-19T11:01:14.616Z,441.00
2023-05-19T11:02:14.719Z,440.00
2023-05-19T11:03:14.789Z,441.00
2023-05-19T11:04:14.729Z,442.00
2023-05-19T11:05:14.833Z,444.00
2023-05-19T11:06:14.883Z,443.00
2023-05-19T11:07:14.833Z,442.00
2023-05-19T11:08:14.855Z,442.00
2023-05-19T11:09:14.922Z,438.00
2023-05-19T11:10:15.014Z,438.00
2023-05-19T11:11:14.965Z,436.00
2023-05-19T11:12:14.968Z,440.00
2023-05-19T11:13:14.991Z,443.00
2023-05-19T11:14:15.061Z,445.00
2023-05-19T11:15:15.814Z,445.00
2023-05-19T11:16:15.122Z,443.00
2023-05-19T11:17:15.172Z,444.00
2023-05-19T11:18:15.384Z,439.00
2023-05-19T11:19:15.301Z,440.00
2023-05-19T11:20:15.785Z,438.00
2023-05-19T11:21:15.324Z,442.00
2023-05-19T11:22:15.439Z,441.00
2023-05-19T11:23:15.436Z,441.00
2023-05-19T11:24:15.402Z,441.00
2023-05-19T11:25:15.437Z,442.00
2023-05-19T11:26:15.457Z,443.00
2023-05-19T11:27:15.481Z,443.00
2023-05-19T11:28:15.553Z,442.00
2023-05-19T11:29:15.432Z,438.00
2023-05-19T11:30:15.441Z,439.00
2023-05-19T11:31:15.393Z,440.00
2023-05-19T11:32:15.457Z,440.00
2023-05-19T11:33:15.425Z,439.00
2023-05-19T11:34:15.384Z,441.00
2023-05-19T11:35:15.349Z,440.00
2023-05-19T11:36:15.317Z,440.00
2023-05-19T11:37:15.372Z,439.00
2023-05-19T11:38:15.267Z,440.00
2023-05-19T11:39:15.298Z,440.00
2023-05-19T11:40:15.307Z,441.00
2023-05-19T11:41:15.360Z,443.00
2023-05-19T11:42:15.378Z,440.00
2023-05-19T11:43:15.448Z,440.00
2023-05-19T11:44:15.470Z,438.00
2023-05-19T11:45:15.636Z,438.00
2023-05-19T11:46:15.632Z,438.00
2023-05-19T11:47:15.565Z,438.00
2023-05-19T11:48:15.713Z,438.00
2023-05-19T11:49:15.663Z,441.00
2023-05-19T11:50:15.662Z,441.00
2023-05-19T11:51:16.282Z,441.00
2023-05-19T11:52:15.715Z,443.00
2023-05-19T11:53:15.736Z,444.00
2023-05-19T11:54:15.873Z,443.00
2023-05-19T11:55:15.833Z,443.00
2023-05-19T11:56:15.851Z,442.00
2023-05-19T11:57:15.928Z,443.00
2023-05-19T11:58:16.003Z,446.00
2023-05-19T11:59:15.947Z,446.00
2023-05-19T12:00:16.031Z,445.00
2023-05-19T12:01:16.061Z,445.00
2023-05-19T12:02:16.045Z,443.00
2023-05-19T12:03:16.101Z,444.00
2023-05-19T12:04:15.948Z,441.00
2023-05-19T12:05:16.072Z,441.00
2023-05-19T12:06:16.924Z,443.00
2023-05-19T12:07:15.930Z,444.00
2023-05-19T12:08:15.914Z,443.00
2023-05-19T12:09:15.940Z,440.00
2023-05-19T12:10:15.963Z,437.00
2023-05-19T12:11:16.978Z,438.00
2023-05-19T12:12:15.965Z,440.00
2023-05-19T12:13:15.964Z,443.00
2023-05-19T12:14:15.916Z,445.00
2023-05-19T12:15:15.945Z,450.00
2023-05-19T12:16:16.100Z,449.00
2023-05-19T12:17:16.028Z,447.00
2023-05-19T12:18:16.112Z,446.00
2023-05-19T12:19:16.151Z,447.00
2023-05-19T12:20:16.117Z,449.00
2023-05-19T12:21:16.834Z,450.00
2023-05-19T12:22:16.070Z,450.00
2023-05-19T12:23:16.038Z,451.00
2023-05-19T12:24:16.090Z,449.00
2023-05-19T12:25:16.002Z,449.00
2023-05-19T12:26:16.000Z,447.00
2023-05-19T12:27:16.006Z,445.00
2023-05-19T12:28:15.978Z,445.00
2023-05-19T12:29:15.948Z,444.00
2023-05-19T12:30:15.983Z,441.00